Time;durP1;ratioP1;P1;durP2;ratioP2;P2;SDS_P1;SDS_P2;PMS_P1;PMS_P2;Temp;Humidity;BMP_temperature;BMP_pressure;BME280_temperature;BME280_humidity;BME280_pressure;Samples;Min_cycle;Max_cycle;Signal;HPM_P1;HPM_P2
2023/04/08 00:00:49;;;;;;;;;;;20.70;95.90;;;;;;5100226;28;20661;-67
2023/04/08 00:03:16;;;;;;;;;;;20.80;95.70;;;;;;5101265;28;20379;-68
2023/04/08 00:05:42;;;;;;;;;;;20.80;95.30;;;;;;5100320;28;20090;-70
2023/04/08 00:08:09;;;;;;;;;;;20.80;95.20;;;;;;5100209;28;19908;-68
2023/04/08 00:10:36;;;;;;;;;;;20.90;94.70;;;;;;5100594;28;19912;-67
2023/04/08 00:13:02;;;;;;;;;;;20.90;94.60;;;;;;5101177;28;20388;-72
2023/04/08 00:15:29;;;;;;;;;;;21.00;94.50;;;;;;5100822;28;19912;-65
2023/04/08 00:17:56;;;;;;;;;;;21.00;94.50;;;;;;5099463;28;20170;-66
2023/04/08 00:20:23;;;;;;;;;;;21.00;93.70;;;;;;5100281;28;19904;-68
2023/04/08 00:22:50;;;;;;;;;;;21.00;94.00;;;;;;5100198;28;19912;-68
2023/04/08 00:25:16;;;;;;;;;;;21.00;93.90;;;;;;5100854;28;19938;-69
2023/04/08 00:27:43;;;;;;;;;;;21.20;93.70;;;;;;5099369;28;19908;-68
2023/04/08 00:30:10;;;;;;;;;;;21.10;93.80;;;;;;5082124;28;20337;-69
2023/04/08 00:32:37;;;;;;;;;;;21.20;94.10;;;;;;5100285;28;19968;-68
2023/04/08 00:35:04;;;;;;;;;;;21.40;94.40;;;;;;5100584;28;19918;-66
2023/04/08 00:37:31;;;;;;;;;;;21.40;93.90;;;;;;5100917;28;20132;-67
2023/04/08 00:39:57;;;;;;;;;;;21.40;94.10;;;;;;5099113;28;20287;-66
2023/04/08 00:42:24;;;;;;;;;;;21.60;93.90;;;;;;5100263;28;19934;-66
2023/04/08 00:44:50;;;;;;;;;;;21.70;93.40;;;;;;5080887;28;20006;-66
2023/04/08 00:47:17;;;;;;;;;;;21.70;93.00;;;;;;5100450;28;19960;-70
2023/04/08 00:49:44;;;;;;;;;;;21.70;92.90;;;;;;5099248;28;19914;-66
2023/04/08 00:52:11;;;;;;;;;;;21.70;92.10;;;;;;5100206;28;19915;-67
2023/04/08 00:54:38;;;;;;;;;;;21.80;92.80;;;;;;5100141;28;19915;-67
2023/04/08 00:57:05;;;;;;;;;;;21.80;92.10;;;;;;5099463;28;20071;-66
2023/04/08 00:59:32;;;;;;;;;;;21.90;92.40;;;;;;5099289;28;20607;-66
2023/04/08 01:02:06;;;;;;;;;;;21.90;92.20;;;;;;5098738;28;19908;-67
2023/04/08 01:04:39;;;;;;;;;;;21.90;92.00;;;;;;5099340;28;19911;-67
2023/04/08 01:07:26;;;;;;;;;;;21.90;92.20;;;;;;5098964;28;20352;-67
2023/04/08 01:09:57;;;;;;;;;;;21.90;91.70;;;;;;5097152;28;20175;-68
2023/04/08 01:12:28;;;;;;;;;;;22.00;92.10;;;;;;5098538;28;19904;-66
2023/04/08 01:15:08;;;;;;;;;;;22.10;91.10;;;;;;5097424;28;20311;-72
2023/04/08 01:17:35;;;;;;;;;;;22.10;91.50;;;;;;5098500;28;19931;-68
2023/04/08 01:20:03;;;;;;;;;;;22.20;91.30;;;;;;5098153;28;19999;-68
2023/04/08 01:22:32;;;;;;;;;;;22.30;91.10;;;;;;5099137;28;20429;-69
2023/04/08 01:25:06;;;;;;;;;;;22.30;91.30;;;;;;5098252;28;19933;-66
2023/04/08 01:27:34;;;;;;;;;;;22.40;91.00;;;;;;5099348;28;19955;-67
2023/04/08 01:30:02;;;;;;;;;;;22.50;91.20;;;;;;5098515;28;19908;-68
2023/04/08 01:32:30;;;;;;;;;;;22.60;91.10;;;;;;5099464;28;19908;-67
2023/04/08 01:34:57;;;;;;;;;;;22.70;91.00;;;;;;5097935;28;19916;-66
2023/04/08 01:37:24;;;;;;;;;;;22.90;91.00;;;;;;5098504;28;19960;-67
2023/04/08 01:39:51;;;;;;;;;;;23.00;90.50;;;;;;5097930;28;19908;-68
2023/04/08 01:42:18;;;;;;;;;;;23.20;90.40;;;;;;5099945;28;20380;-67
2023/04/08 01:44:45;;;;;;;;;;;23.30;90.00;;;;;;5099565;28;19915;-68
2023/04/08 01:47:13;;;;;;;;;;;23.40;90.50;;;;;;5098615;28;20185;-66
2023/04/08 01:49:39;;;;;;;;;;;23.40;88.70;;;;;;5098008;28;19908;-66
2023/04/08 01:52:08;;;;;;;;;;;23.40;88.80;;;;;;5097455;28;20072;-66
2023/04/08 01:54:35;;;;;;;;;;;23.40;89.20;;;;;;5098879;28;19916;-65
2023/04/08 01:57:07;;;;;;;;;;;23.60;90.20;;;;;;5097863;28;20351;-67
2023/04/08 01:59:35;;;;;;;;;;;23.70;88.60;;;;;;5097986;28;19914;-66
2023/04/08 02:02:04;;;;;;;;;;;23.90;88.00;;;;;;5098064;28;19914;-67
2023/04/08 02:04:32;;;;;;;;;;;24.10;87.70;;;;;;5098838;28;20551;-66
2023/04/08 02:07:00;;;;;;;;;;;24.30;88.00;;;;;;5097382;28;20356;-67
2023/04/08 02:09:27;;;;;;;;;;;24.30;86.50;;;;;;5096597;28;19965;-68
2023/04/08 02:11:53;;;;;;;;;;;24.30;86.50;;;;;;5078879;28;19908;-68
2023/04/08 02:14:20;;;;;;;;;;;24.50;87.10;;;;;;5096608;28;19939;-67
2023/04/08 02:16:53;;;;;;;;;;;24.60;87.10;;;;;;5097851;28;19907;-67
2023/04/08 02:19:25;;;;;;;;;;;24.70;85.30;;;;;;5097676;28;19947;-67
2023/04/08 02:21:54;;;;;;;;;;;24.80;86.60;;;;;;5098476;28;20345;-68
2023/04/08 02:24:21;;;;;;;;;;;24.90;85.80;;;;;;5097682;28;19999;-67
2023/04/08 02:26:50;;;;;;;;;;;25.00;85.10;;;;;;5097923;28;20079;-67
2023/04/08 02:29:17;;;;;;;;;;;25.10;84.10;;;;;;5096951;28;20279;-68
2023/04/08 02:31:44;;;;;;;;;;;25.10;84.50;;;;;;5097511;28;19950;-66
2023/04/08 02:34:11;;;;;;;;;;;25.10;84.60;;;;;;5097083;28;20256;-66
2023/04/08 02:36:39;;;;;;;;;;;25.30;84.40;;;;;;5098060;28;19922;-69
2023/04/08 02:39:06;;;;;;;;;;;25.50;83.20;;;;;;5097688;28;20205;-67
2023/04/08 02:41:33;;;;;;;;;;;25.70;82.00;;;;;;5096963;28;20045;-68
2023/04/08 02:44:00;;;;;;;;;;;25.90;81.80;;;;;;5097577;28;19915;-69
2023/04/08 02:46:26;;;;;;;;;;;26.30;81.20;;;;;;5097383;28;20368;-68
2023/04/08 02:48:53;;;;;;;;;;;27.30;79.40;;;;;;5097333;28;19908;-71
2023/04/08 02:51:20;;;;;;;;;;;28.00;78.20;;;;;;5096111;28;20135;-67
2023/04/08 02:53:47;;;;;;;;;;;28.80;76.90;;;;;;5097587;28;20004;-68
2023/04/08 02:56:13;;;;;;;;;;;30.00;74.00;;;;;;5097959;28;20056;-67
2023/04/08 02:58:40;;;;;;;;;;;30.50;71.90;;;;;;5097328;28;19908;-67
2023/04/08 03:01:08;;;;;;;;;;;31.60;70.50;;;;;;5096916;28;19907;-66
2023/04/08 03:03:35;;;;;;;;;;;32.30;67.20;;;;;;5097099;28;19908;-70
2023/04/08 03:06:02;;;;;;;;;;;32.90;65.80;;;;;;5097656;28;19994;-70
2023/04/08 03:08:28;;;;;;;;;;;33.50;63.60;;;;;;5097510;28;20375;-68
2023/04/08 03:10:55;;;;;;;;;;;34.40;63.20;;;;;;5097016;28;20115;-67
2023/04/08 03:13:21;;;;;;;;;;;34.90;61.40;;;;;;5096049;28;20117;-68
2023/04/08 03:15:48;;;;;;;;;;;35.00;60.60;;;;;;5098016;28;19916;-70
2023/04/08 03:18:15;;;;;;;;;;;34.50;59.60;;;;;;5097223;28;19915;-71
2023/04/08 03:20:41;;;;;;;;;;;34.40;59.90;;;;;;5097349;28;19927;-69
2023/04/08 03:23:08;;;;;;;;;;;34.90;60.30;;;;;;5096777;28;20086;-68
2023/04/08 03:25:35;;;;;;;;;;;35.30;59.50;;;;;;5097516;28;19908;-69
2023/04/08 03:28:01;;;;;;;;;;;35.60;59.00;;;;;;5097621;28;19908;-69
2023/04/08 03:30:28;;;;;;;;;;;35.30;59.10;;;;;;5096439;28;19984;-67
2023/04/08 03:32:54;;;;;;;;;;;35.60;58.90;;;;;;5096992;28;20458;-67
2023/04/08 03:35:21;;;;;;;;;;;35.60;58.10;;;;;;5096878;28;19912;-68
2023/04/08 03:37:48;;;;;;;;;;;35.00;57.60;;;;;;5097494;28;20563;-68
2023/04/08 03:40:15;;;;;;;;;;;35.10;57.50;;;;;;5096651;28;19920;-72
2023/04/08 03:42:41;;;;;;;;;;;35.20;58.10;;;;;;5096696;28;20032;-70
2023/04/08 03:45:08;;;;;;;;;;;34.90;57.30;;;;;;5097433;28;19908;-67
2023/04/08 03:47:35;;;;;;;;;;;34.70;58.10;;;;;;5096937;28;19915;-67
2023/04/08 03:50:02;;;;;;;;;;;34.90;57.20;;;;;;5097086;28;19907;-66
2023/04/08 03:52:28;;;;;;;;;;;35.00;56.90;;;;;;5095507;28;19952;-67
2023/04/08 03:54:55;;;;;;;;;;;35.20;57.10;;;;;;5097433;28;19923;-67
2023/04/08 03:57:22;;;;;;;;;;;35.30;56.30;;;;;;5096960;28;20302;-69
2023/04/08 03:59:49;;;;;;;;;;;35.10;56.90;;;;;;5096231;28;20301;-67
2023/04/08 04:02:15;;;;;;;;;;;35.50;56.90;;;;;;5096140;28;20148;-66
2023/04/08 04:04:42;;;;;;;;;;;35.50;56.60;;;;;;5096404;28;20152;-66
2023/04/08 04:07:08;;;;;;;;;;;35.10;56.20;;;;;;5097304;28;19915;-67
2023/04/08 04:09:35;;;;;;;;;;;34.70;56.90;;;;;;5096506;28;19919;-72
2023/04/08 04:12:02;;;;;;;;;;;35.00;57.20;;;;;;5096707;28;19912;-69
2023/04/08 04:14:28;;;;;;;;;;;35.40;56.90;;;;;;5095714;28;19965;-67
2023/04/08 04:16:55;;;;;;;;;;;35.60;55.80;;;;;;5097575;28;19931;-69
2023/04/08 04:19:21;;;;;;;;;;;35.80;56.10;;;;;;5095997;28;19935;-65
2023/04/08 04:21:48;;;;;;;;;;;35.00;56.30;;;;;;5095931;28;19908;-68
2023/04/08 04:24:15;;;;;;;;;;;34.50;57.80;;;;;;5100150;28;19915;-67
2023/04/08 04:26:41;;;;;;;;;;;34.70;56.40;;;;;;5100524;28;19912;-68
2023/04/08 04:29:08;;;;;;;;;;;33.40;57.20;;;;;;5100951;28;19908;-65
2023/04/08 04:31:35;;;;;;;;;;;32.20;58.70;;;;;;5099553;28;19968;-66
2023/04/08 04:34:01;;;;;;;;;;;31.60;59.50;;;;;;5100843;28;19923;-65
2023/04/08 04:36:28;;;;;;;;;;;31.40;60.50;;;;;;5100843;28;19914;-66
2023/04/08 04:38:55;;;;;;;;;;;31.90;60.30;;;;;;5099316;28;19907;-66
2023/04/08 04:41:22;;;;;;;;;;;32.10;59.70;;;;;;5100633;28;20325;-67
2023/04/08 04:43:48;;;;;;;;;;;33.30;59.10;;;;;;5098768;28;19915;-66
2023/04/08 04:46:15;;;;;;;;;;;34.30;57.70;;;;;;5101019;28;19930;-66
2023/04/08 04:48:41;;;;;;;;;;;35.30;56.80;;;;;;5098717;28;20318;-67
2023/04/08 04:51:08;;;;;;;;;;;36.20;56.60;;;;;;5099932;28;19908;-69
2023/04/08 04:53:35;;;;;;;;;;;36.80;55.20;;;;;;5099791;28;20336;-65
2023/04/08 04:56:02;;;;;;;;;;;36.90;54.20;;;;;;5099813;28;20356;-64
2023/04/08 04:58:29;;;;;;;;;;;36.50;54.80;;;;;;5100956;28;20307;-65
2023/04/08 05:00:56;;;;;;;;;;;36.10;54.40;;;;;;5098273;28;20284;-65
2023/04/08 05:03:22;;;;;;;;;;;35.80;55.10;;;;;;5100650;28;19908;-64
2023/04/08 05:05:53;;;;;;;;;;;35.60;54.80;;;;;;5098518;28;19916;-66
2023/04/08 05:08:20;;;;;;;;;;;35.10;54.90;;;;;;5100711;28;19908;-71
2023/04/08 05:10:49;;;;;;;;;;;34.30;55.70;;;;;;5098573;28;19990;-70
2023/04/08 05:13:16;;;;;;;;;;;33.50;56.40;;;;;;5100595;28;19916;-70
2023/04/08 05:15:44;;;;;;;;;;;32.60;57.30;;;;;;5097566;28;20011;-68
2023/04/08 05:18:11;;;;;;;;;;;31.80;58.90;;;;;;5100428;28;19976;-66
2023/04/08 05:20:38;;;;;;;;;;;31.10;59.90;;;;;;5099588;28;19908;-67
2023/04/08 05:23:04;;;;;;;;;;;31.20;59.50;;;;;;5098995;28;19907;-68
2023/04/08 05:25:31;;;;;;;;;;;32.00;59.20;;;;;;5100132;28;19907;-65
2023/04/08 05:27:58;;;;;;;;;;;32.60;58.10;;;;;;5097445;28;19908;-66
2023/04/08 05:30:25;;;;;;;;;;;32.50;57.80;;;;;;5100387;28;20372;-66
2023/04/08 05:32:51;;;;;;;;;;;32.70;58.20;;;;;;5097934;28;19982;-69
2023/04/08 05:35:18;;;;;;;;;;;33.10;57.80;;;;;;5099609;28;20185;-73
2023/04/08 05:37:44;;;;;;;;;;;32.80;57.20;;;;;;5097837;28;20006;-66
2023/04/08 05:40:11;;;;;;;;;;;32.60;58.30;;;;;;5099341;28;19915;-70
2023/04/08 05:42:38;;;;;;;;;;;33.10;57.50;;;;;;5100107;28;19915;-68
2023/04/08 05:45:05;;;;;;;;;;;32.80;57.20;;;;;;5098272;28;19908;-65
2023/04/08 05:47:32;;;;;;;;;;;32.80;57.30;;;;;;5100187;28;19908;-67
2023/04/08 05:49:59;;;;;;;;;;;32.40;57.30;;;;;;5097737;28;19957;-66
2023/04/08 05:52:25;;;;;;;;;;;32.50;58.10;;;;;;5100045;28;20280;-66
2023/04/08 05:54:52;;;;;;;;;;;32.40;58.00;;;;;;5097743;28;19916;-68
2023/04/08 05:57:19;;;;;;;;;;;31.90;57.90;;;;;;5098705;28;19934;-66
2023/04/08 05:59:46;;;;;;;;;;;31.20;59.40;;;;;;5098007;28;19908;-65
2023/04/08 06:02:12;;;;;;;;;;;30.80;59.00;;;;;;5098851;28;20428;-66
2023/04/08 06:04:39;;;;;;;;;;;30.50;59.30;;;;;;5099415;28;19911;-68
2023/04/08 06:07:07;;;;;;;;;;;29.60;60.60;;;;;;5096613;28;20186;-66
2023/04/08 06:09:36;;;;;;;;;;;28.90;62.00;;;;;;5099021;28;20038;-68
2023/04/08 06:12:03;;;;;;;;;;;28.80;62.80;;;;;;5096779;28;20172;-64
2023/04/08 06:14:30;;;;;;;;;;;29.20;62.00;;;;;;5099230;28;20018;-71
2023/04/08 06:16:56;;;;;;;;;;;29.80;61.80;;;;;;5097679;28;20601;-64
2023/04/08 06:19:23;;;;;;;;;;;29.70;61.50;;;;;;5098122;28;19955;-71
2023/04/08 06:21:50;;;;;;;;;;;28.90;62.90;;;;;;5097880;28;20002;-65
2023/04/08 06:24:17;;;;;;;;;;;27.90;63.80;;;;;;5098631;28;19957;-70
2023/04/08 06:26:43;;;;;;;;;;;26.90;65.20;;;;;;5099184;28;19952;-65
2023/04/08 06:29:10;;;;;;;;;;;26.20;66.40;;;;;;5095755;28;20059;-70
2023/04/08 06:31:37;;;;;;;;;;;25.70;67.20;;;;;;5099085;28;19908;-65
2023/04/08 06:34:03;;;;;;;;;;;25.30;68.10;;;;;;5096970;28;19973;-65
2023/04/08 06:36:30;;;;;;;;;;;25.10;68.10;;;;;;5098811;28;19912;-69
2023/04/08 06:38:57;;;;;;;;;;;25.00;68.40;;;;;;5096567;28;19915;-68
2023/04/08 06:41:23;;;;;;;;;;;24.90;68.40;;;;;;5097905;28;19920;-65
2023/04/08 06:43:50;;;;;;;;;;;25.30;67.70;;;;;;5097935;28;19930;-66
2023/04/08 06:46:16;;;;;;;;;;;26.00;66.20;;;;;;5096861;28;19904;-64
2023/04/08 06:48:43;;;;;;;;;;;26.00;66.10;;;;;;5098640;28;19914;-64
2023/04/08 06:51:10;;;;;;;;;;;25.70;65.80;;;;;;5096005;28;19908;-64
2023/04/08 06:53:37;;;;;;;;;;;25.30;67.20;;;;;;5099134;28;19912;-67
2023/04/08 06:56:03;;;;;;;;;;;25.00;67.40;;;;;;5096199;28;19912;-64
2023/04/08 06:58:30;;;;;;;;;;;24.60;68.20;;;;;;5097859;28;20563;-72
2023/04/08 07:00:57;;;;;;;;;;;24.30;69.20;;;;;;5096936;28;19951;-64
2023/04/08 07:03:25;;;;;;;;;;;24.00;69.20;;;;;;5098057;28;19931;-68
2023/04/08 07:05:52;;;;;;;;;;;23.60;70.10;;;;;;5098328;28;19908;-66
2023/04/08 07:08:19;;;;;;;;;;;23.40;70.90;;;;;;5096423;28;19911;-64
2023/04/08 07:10:45;;;;;;;;;;;23.10;71.40;;;;;;5097650;28;20628;-64
2023/04/08 07:13:12;;;;;;;;;;;22.90;71.90;;;;;;5095654;28;19958;-66
2023/04/08 07:15:40;;;;;;;;;;;22.80;72.50;;;;;;5098409;28;19919;-68
2023/04/08 07:18:06;;;;;;;;;;;22.80;72.70;;;;;;5096003;28;20381;-65
2023/04/08 07:20:37;;;;;;;;;;;22.70;72.90;;;;;;5097810;28;19912;-67
2023/04/08 07:23:04;;;;;;;;;;;22.50;73.50;;;;;;5095545;28;19912;-67
2023/04/08 07:25:30;;;;;;;;;;;22.40;73.60;;;;;;5097147;28;20003;-69
2023/04/08 07:27:57;;;;;;;;;;;22.40;73.90;;;;;;5097462;28;20389;-67
2023/04/08 07:30:23;;;;;;;;;;;22.30;74.40;;;;;;5096631;28;20079;-72
2023/04/08 07:32:50;;;;;;;;;;;22.20;74.70;;;;;;5098086;28;19981;-67
2023/04/08 07:35:23;;;;;;;;;;;22.20;75.20;;;;;;5095053;28;19947;-68
2023/04/08 07:37:52;;;;;;;;;;;22.20;75.60;;;;;;5097368;28;19911;-65
2023/04/08 07:40:19;;;;;;;;;;;22.10;75.80;;;;;;5076924;28;20586;-67
2023/04/08 07:42:46;;;;;;;;;;;22.00;75.80;;;;;;5097912;28;19919;-66
2023/04/08 07:45:13;;;;;;;;;;;21.90;76.10;;;;;;5095847;28;19908;-68
2023/04/08 07:47:39;;;;;;;;;;;21.80;76.10;;;;;;5097292;28;19912;-67
2023/04/08 07:50:06;;;;;;;;;;;21.80;76.50;;;;;;5095871;28;20006;-69
2023/04/08 07:52:33;;;;;;;;;;;21.70;76.60;;;;;;5097261;28;19994;-66
2023/04/08 07:55:00;;;;;;;;;;;21.70;76.90;;;;;;5097323;28;19916;-68
2023/04/08 07:57:27;;;;;;;;;;;21.60;77.20;;;;;;5096001;28;19968;-66
2023/04/08 07:59:54;;;;;;;;;;;21.60;77.50;;;;;;5101242;28;19908;-75
2023/04/08 08:02:20;;;;;;;;;;;21.50;77.60;;;;;;5099157;28;19908;-66
2023/04/08 08:04:47;;;;;;;;;;;21.50;77.90;;;;;;5101733;28;19908;-67
2023/04/08 08:07:14;;;;;;;;;;;21.40;77.80;;;;;;5099709;28;19912;-66
2023/04/08 08:09:40;;;;;;;;;;;21.40;78.10;;;;;;5101013;28;19990;-68
2023/04/08 08:12:07;;;;;;;;;;;21.30;78.40;;;;;;5099950;28;20004;-68
2023/04/08 08:14:33;;;;;;;;;;;21.20;78.50;;;;;;5101316;28;19916;-68
2023/04/08 08:17:00;;;;;;;;;;;21.10;78.80;;;;;;5101411;28;19969;-68
2023/04/08 08:19:27;;;;;;;;;;;21.10;79.80;;;;;;5098277;28;19907;-66
2023/04/08 08:21:55;;;;;;;;;;;21.10;79.50;;;;;;5101490;28;19907;-66
2023/04/08 08:24:21;;;;;;;;;;;21.00;79.40;;;;;;5099165;28;19908;-72
2023/04/08 08:26:48;;;;;;;;;;;21.00;79.40;;;;;;5101133;28;20138;-68
2023/04/08 08:29:14;;;;;;;;;;;20.90;79.60;;;;;;5099170;28;19907;-66
2023/04/08 08:31:41;;;;;;;;;;;21.00;79.60;;;;;;5100245;28;20183;-66
2023/04/08 08:34:08;;;;;;;;;;;20.90;79.50;;;;;;5100396;28;19916;-67
2023/04/08 08:36:35;;;;;;;;;;;20.90;79.20;;;;;;5099168;28;19965;-69
2023/04/08 08:39:01;;;;;;;;;;;20.90;79.10;;;;;;5100746;28;19908;-67
2023/04/08 08:41:33;;;;;;;;;;;20.80;79.50;;;;;;5098523;28;20091;-68
2023/04/08 08:44:00;;;;;;;;;;;20.80;78.80;;;;;;5100641;28;19911;-68
2023/04/08 08:46:26;;;;;;;;;;;20.80;78.80;;;;;;5098918;28;19908;-67
2023/04/08 08:48:53;;;;;;;;;;;20.70;78.90;;;;;;5100566;28;19908;-68
2023/04/08 08:51:20;;;;;;;;;;;20.70;79.20;;;;;;5098730;28;19907;-64
2023/04/08 08:53:46;;;;;;;;;;;20.70;79.30;;;;;;5099855;28;19916;-67
2023/04/08 08:56:13;;;;;;;;;;;20.70;80.10;;;;;;5099755;28;20480;-68
2023/04/08 08:58:40;;;;;;;;;;;20.60;80.10;;;;;;5099764;28;19968;-71
2023/04/08 09:01:25;;;;;;;;;;;20.50;80.10;;;;;;5100689;28;19912;-66
2023/04/08 09:04:21;;;;;;;;;;;20.60;80.40;;;;;;5100378;28;20360;-66
2023/04/08 09:06:49;;;;;;;;;;;20.50;80.50;;;;;;5086667;28;19931;-71
2023/04/08 09:09:16;;;;;;;;;;;20.40;80.50;;;;;;5099120;28;19915;-66
2023/04/08 09:11:44;;;;;;;;;;;20.40;80.50;;;;;;5099654;28;19991;-65
2023/04/08 09:14:21;;;;;;;;;;;20.40;80.40;;;;;;5100375;28;20364;-65
2023/04/08 09:16:47;;;;;;;;;;;20.40;80.50;;;;;;5098249;28;20236;-65
2023/04/08 09:19:14;;;;;;;;;;;20.40;80.50;;;;;;5100297;28;19995;-66
2023/04/08 09:21:41;;;;;;;;;;;20.40;80.70;;;;;;5097618;28;19919;-66
2023/04/08 09:24:08;;;;;;;;;;;20.40;80.70;;;;;;5099712;28;20063;-67
2023/04/08 09:26:36;;;;;;;;;;;20.40;80.90;;;;;;5098683;28;20511;-66
2023/04/08 09:29:04;;;;;;;;;;;20.30;80.90;;;;;;5100215;28;19908;-70
2023/04/08 09:31:40;;;;;;;;;;;20.30;81.00;;;;;;5099515;28;19953;-67
2023/04/08 09:34:11;;;;;;;;;;;20.20;81.10;;;;;;5099898;28;20364;-73
2023/04/08 09:36:38;;;;;;;;;;;20.20;81.40;;;;;;5097258;28;19907;-67
2023/04/08 09:39:05;;;;;;;;;;;20.20;81.80;;;;;;5099845;28;19932;-68
2023/04/08 09:41:35;;;;;;;;;;;20.10;82.20;;;;;;5099459;28;19926;-67
2023/04/08 09:44:06;;;;;;;;;;;20.10;82.20;;;;;;5098722;28;19952;-67
2023/04/08 09:46:33;;;;;;;;;;;20.10;82.20;;;;;;5099425;28;19984;-68
2023/04/08 09:49:09;;;;;;;;;;;20.00;83.10;;;;;;5098113;28;20063;-69
2023/04/08 09:51:59;;;;;;;;;;;20.10;82.60;;;;;;5099153;28;20003;-68
2023/04/08 09:54:52;;;;;;;;;;;20.00;82.60;;;;;;5098798;28;19920;-69
2023/04/08 09:57:27;;;;;;;;;;;20.00;82.90;;;;;;5096670;28;19915;-67
2023/04/08 10:00:09;;;;;;;;;;;19.90;83.30;;;;;;5096960;28;20063;-69
2023/04/08 10:02:40;;;;;;;;;;;20.00;83.40;;;;;;5098495;28;20382;-73
2023/04/08 10:05:07;;;;;;;;;;;19.90;83.80;;;;;;5099397;28;20000;-66
2023/04/08 10:07:35;;;;;;;;;;;19.80;84.10;;;;;;5099619;28;19928;-66
2023/04/08 10:10:02;;;;;;;;;;;19.80;84.10;;;;;;5097130;28;20115;-67
2023/04/08 10:12:28;;;;;;;;;;;19.80;84.30;;;;;;5098943;28;19994;-67
2023/04/08 10:15:15;;;;;;;;;;;19.80;84.30;;;;;;5096958;28;19920;-70
2023/04/08 10:17:41;;;;;;;;;;;19.80;84.00;;;;;;5086841;28;19918;-69
2023/04/08 10:20:28;;;;;;;;;;;19.80;84.50;;;;;;5098482;28;19986;-71
2023/04/08 10:22:55;;;;;;;;;;;19.70;84.30;;;;;;5096831;28;19908;-68
2023/04/08 10:25:29;;;;;;;;;;;19.60;84.30;;;;;;5099318;28;19907;-72
2023/04/08 10:27:56;;;;;;;;;;;19.60;84.40;;;;;;5096587;28;19961;-70
2023/04/08 10:30:26;;;;;;;;;;;19.60;84.70;;;;;;5099074;28;19914;-68
2023/04/08 10:32:55;;;;;;;;;;;19.60;83.70;;;;;;5096521;28;20199;-67
2023/04/08 10:35:34;;;;;;;;;;;19.60;83.90;;;;;;5099013;28;19916;-71
2023/04/08 10:38:00;;;;;;;;;;;19.60;83.60;;;;;;5096778;28;20169;-67
2023/04/08 10:40:27;;;;;;;;;;;19.60;83.50;;;;;;5098794;28;19927;-67
2023/04/08 10:43:00;;;;;;;;;;;19.50;84.00;;;;;;5096718;28;19915;-66
2023/04/08 10:45:27;;;;;;;;;;;19.50;83.60;;;;;;5098623;28;19915;-70
2023/04/08 10:47:54;;;;;;;;;;;19.50;83.30;;;;;;5095822;28;19999;-65
2023/04/08 10:50:22;;;;;;;;;;;19.50;83.10;;;;;;5098365;28;20174;-70
2023/04/08 10:52:53;;;;;;;;;;;19.50;83.10;;;;;;5096297;28;20010;-67
2023/04/08 10:55:26;;;;;;;;;;;19.40;83.00;;;;;;5098593;28;19922;-67
2023/04/08 10:57:53;;;;;;;;;;;19.40;82.90;;;;;;5095481;28;19908;-65
2023/04/08 11:00:31;;;;;;;;;;;19.40;83.00;;;;;;5097969;28;20340;-67
2023/04/08 11:03:05;;;;;;;;;;;19.40;82.90;;;;;;5095929;28;20470;-68
2023/04/08 11:05:32;;;;;;;;;;;19.40;82.70;;;;;;5098337;28;19911;-66
2023/04/08 11:08:00;;;;;;;;;;;19.40;82.60;;;;;;5095989;28;19919;-65
2023/04/08 11:10:27;;;;;;;;;;;19.30;82.50;;;;;;5098384;28;19915;-68
2023/04/08 11:12:55;;;;;;;;;;;19.30;82.70;;;;;;5095455;28;20540;-66
2023/04/08 11:15:22;;;;;;;;;;;19.40;82.40;;;;;;5098169;28;20019;-65
2023/04/08 11:17:49;;;;;;;;;;;19.30;82.30;;;;;;5098145;28;19908;-67
2023/04/08 11:20:15;;;;;;;;;;;19.30;82.40;;;;;;5096819;28;19915;-64
2023/04/08 11:22:43;;;;;;;;;;;19.30;82.60;;;;;;5097539;28;19908;-67
2023/04/08 11:25:10;;;;;;;;;;;19.20;82.70;;;;;;5096144;28;20517;-64
2023/04/08 11:27:38;;;;;;;;;;;19.20;82.40;;;;;;5097916;28;19915;-67
2023/04/08 11:30:06;;;;;;;;;;;19.20;82.30;;;;;;5096566;28;19907;-66
2023/04/08 11:32:34;;;;;;;;;;;19.20;82.10;;;;;;5079665;28;19907;-66
2023/04/08 11:35:04;;;;;;;;;;;19.20;81.90;;;;;;5095002;28;20010;-66
2023/04/08 11:37:38;;;;;;;;;;;19.20;81.90;;;;;;5097495;28;20168;-66
2023/04/08 11:40:11;;;;;;;;;;;19.10;82.30;;;;;;5095139;28;19919;-64
2023/04/08 11:42:38;;;;;;;;;;;19.10;81.20;;;;;;5098707;28;19912;-65
2023/04/08 11:45:11;;;;;;;;;;;19.20;81.10;;;;;;5095684;28;19934;-64
2023/04/08 11:47:38;;;;;;;;;;;19.10;81.00;;;;;;5097998;28;19908;-65
2023/04/08 11:50:05;;;;;;;;;;;19.10;80.90;;;;;;5095250;28;20188;-66
2023/04/08 11:52:45;;;;;;;;;;;19.20;80.80;;;;;;5097549;28;19943;-65
2023/04/08 11:55:21;;;;;;;;;;;19.10;81.00;;;;;;5095324;28;20074;-66
2023/04/08 11:57:47;;;;;;;;;;;19.10;81.10;;;;;;5097161;28;19953;-72
2023/04/08 12:00:14;;;;;;;;;;;19.00;81.30;;;;;;5095403;28;20178;-66
2023/04/08 12:02:40;;;;;;;;;;;19.00;81.70;;;;;;5097598;28;19914;-67
2023/04/08 12:05:07;;;;;;;;;;;19.00;81.70;;;;;;5095409;28;19912;-65
2023/04/08 12:07:34;;;;;;;;;;;18.90;81.50;;;;;;5097391;28;20156;-65
2023/04/08 12:10:00;;;;;;;;;;;18.90;81.80;;;;;;5095999;28;20410;-65
2023/04/08 12:12:27;;;;;;;;;;;18.90;81.50;;;;;;5097604;28;19907;-65
2023/04/08 12:14:53;;;;;;;;;;;18.90;81.80;;;;;;5097178;28;20579;-66
2023/04/08 12:17:20;;;;;;;;;;;18.90;81.50;;;;;;5095495;28;19908;-69
2023/04/08 12:19:47;;;;;;;;;;;18.80;81.60;;;;;;5097334;28;19915;-72
2023/04/08 12:22:13;;;;;;;;;;;18.80;82.00;;;;;;5095344;28;19908;-67
2023/04/08 12:24:40;;;;;;;;;;;18.80;82.00;;;;;;5097412;28;20182;-65
2023/04/08 12:27:07;;;;;;;;;;;18.80;81.80;;;;;;5094560;28;19993;-66
2023/04/08 12:29:33;;;;;;;;;;;18.70;82.30;;;;;;5097532;28;19908;-66
2023/04/08 12:32:01;;;;;;;;;;;18.80;82.10;;;;;;5097074;28;19930;-66
2023/04/08 12:34:27;;;;;;;;;;;18.70;82.30;;;;;;5097410;28;19923;-64
2023/04/08 12:36:54;;;;;;;;;;;18.70;82.40;;;;;;5096943;28;19907;-66
2023/04/08 12:39:21;;;;;;;;;;;18.70;82.20;;;;;;5094863;28;20221;-65
2023/04/08 12:41:48;;;;;;;;;;;18.70;82.30;;;;;;5097603;28;19953;-66
2023/04/08 12:44:15;;;;;;;;;;;18.70;82.20;;;;;;5096425;28;20423;-66
2023/04/08 12:46:42;;;;;;;;;;;18.70;82.50;;;;;;5100816;28;19942;-65
2023/04/08 12:49:08;;;;;;;;;;;18.60;82.60;;;;;;5098826;28;19908;-66
2023/04/08 12:51:35;;;;;;;;;;;18.60;82.50;;;;;;5100890;28;19915;-65
2023/04/08 12:54:02;;;;;;;;;;;18.60;82.60;;;;;;5100920;28;19912;-65
2023/04/08 12:56:30;;;;;;;;;;;18.60;82.70;;;;;;5099447;28;20102;-68
2023/04/08 12:58:57;;;;;;;;;;;18.60;82.80;;;;;;5099780;28;20341;-65
2023/04/08 13:01:24;;;;;;;;;;;18.60;82.80;;;;;;5098236;28;19919;-66
2023/04/08 13:03:51;;;;;;;;;;;18.50;82.60;;;;;;5100535;28;20367;-66
2023/04/08 13:06:17;;;;;;;;;;;18.60;83.20;;;;;;5098240;28;19953;-68
2023/04/08 13:08:48;;;;;;;;;;;18.50;83.20;;;;;;5100582;28;20284;-67
2023/04/08 13:11:14;;;;;;;;;;;18.40;83.50;;;;;;5097761;28;19908;-68
2023/04/08 13:13:41;;;;;;;;;;;18.40;83.70;;;;;;5100089;28;20592;-69
2023/04/08 13:16:08;;;;;;;;;;;18.40;84.20;;;;;;5099665;28;19914;-68
2023/04/08 13:18:35;;;;;;;;;;;18.30;84.50;;;;;;5099357;28;20052;-67
2023/04/08 13:21:02;;;;;;;;;;;18.20;84.50;;;;;;5099954;28;19914;-68
2023/04/08 13:23:28;;;;;;;;;;;18.20;85.10;;;;;;5097839;28;20520;-66
2023/04/08 13:25:55;;;;;;;;;;;18.20;84.30;;;;;;5100302;28;19912;-67
2023/04/08 13:28:21;;;;;;;;;;;18.10;84.50;;;;;;5097829;28;20348;-67
2023/04/08 13:30:48;;;;;;;;;;;18.10;85.20;;;;;;5100052;28;19907;-71
2023/04/08 13:33:15;;;;;;;;;;;18.00;85.30;;;;;;5097875;28;19914;-68
2023/04/08 13:35:41;;;;;;;;;;;18.00;85.70;;;;;;5100622;28;20272;-67
2023/04/08 13:38:08;;;;;;;;;;;17.90;85.40;;;;;;5099963;28;19915;-67
2023/04/08 13:40:35;;;;;;;;;;;18.00;85.60;;;;;;5097977;28;19924;-72
2023/04/08 13:43:02;;;;;;;;;;;17.90;86.70;;;;;;5099368;28;19908;-65
2023/04/08 13:45:28;;;;;;;;;;;17.80;87.10;;;;;;5097897;28;20353;-67
2023/04/08 13:47:55;;;;;;;;;;;17.80;86.70;;;;;;5100062;28;19990;-70
2023/04/08 13:50:22;;;;;;;;;;;17.80;87.00;;;;;;5096880;28;19907;-72
2023/04/08 13:52:48;;;;;;;;;;;17.70;86.40;;;;;;5099593;28;19908;-68
2023/04/08 13:55:15;;;;;;;;;;;17.70;87.10;;;;;;5097505;27;19916;-66
2023/04/08 13:57:42;;;;;;;;;;;17.70;87.90;;;;;;5099191;28;20413;-66
2023/04/08 14:00:09;;;;;;;;;;;17.60;87.70;;;;;;5099420;28;19915;-67
2023/04/08 14:02:36;;;;;;;;;;;17.60;88.20;;;;;;5078867;28;20356;-67
2023/04/08 14:05:03;;;;;;;;;;;17.50;87.80;;;;;;5099573;28;19908;-67
2023/04/08 14:07:29;;;;;;;;;;;17.60;88.80;;;;;;5097193;28;19947;-67
2023/04/08 14:09:56;;;;;;;;;;;17.50;89.40;;;;;;5099464;28;19908;-66
2023/04/08 14:12:23;;;;;;;;;;;17.40;89.50;;;;;;5078828;28;20387;-68
2023/04/08 14:14:49;;;;;;;;;;;17.40;89.30;;;;;;5099197;28;19915;-66
2023/04/08 14:17:16;;;;;;;;;;;17.30;90.20;;;;;;5098787;28;19908;-67
2023/04/08 14:19:43;;;;;;;;;;;17.30;90.30;;;;;;5097289;28;19918;-66